sensor_id;sensor_type;location;lat;lon;timestamp;P1;durP1;ratioP1;P2;durP2;ratioP2
43552;SDS011;29153;42.696;23.218;2022-07-09T00:01:30;8.18;;;6.92;;
43552;SDS011;29153;42.696;23.218;2022-07-09T00:03:58;7.00;;;6.30;;
43552;SDS011;29153;42.696;23.218;2022-07-09T00:06:27;8.60;;;6.87;;
43552;SDS011;29153;42.696;23.218;2022-07-09T00:08:57;7.08;;;6.08;;
43552;SDS011;29153;42.696;23.218;2022-07-09T00:11:25;8.45;;;6.70;;
43552;SDS011;29153;42.696;23.218;2022-07-09T00:13:55;14.45;;;7.15;;
43552;SDS011;29153;42.696;23.218;2022-07-09T00:16:21;10.75;;;6.97;;
43552;SDS011;29153;42.696;23.218;2022-07-09T00:18:49;13.28;;;7.33;;
43552;SDS011;29153;42.696;23.218;2022-07-09T00:21:17;12.55;;;8.00;;
43552;SDS011;29153;42.696;23.218;2022-07-09T00:23:45;8.83;;;7.67;;
43552;SDS011;29153;42.696;23.218;2022-07-09T00:26:18;19.25;;;8.00;;
43552;SDS011;29153;42.696;23.218;2022-07-09T00:28:51;10.00;;;7.45;;
43552;SDS011;29153;42.696;23.218;2022-07-09T00:31:20;16.15;;;7.47;;
43552;SDS011;29153;42.696;23.218;2022-07-09T00:33:49;8.40;;;6.20;;
43552;SDS011;29153;42.696;23.218;2022-07-09T00:36:17;7.00;;;5.50;;
43552;SDS011;29153;42.696;23.218;2022-07-09T00:38:46;6.97;;;5.50;;
43552;SDS011;29153;42.696;23.218;2022-07-09T00:41:18;5.40;;;4.90;;
43552;SDS011;29153;42.696;23.218;2022-07-09T00:43:48;6.50;;;5.15;;
43552;SDS011;29153;42.696;23.218;2022-07-09T00:46:17;6.92;;;5.03;;
43552;SDS011;29153;42.696;23.218;2022-07-09T00:48:45;7.08;;;5.12;;
43552;SDS011;29153;42.696;23.218;2022-07-09T00:51:13;6.97;;;5.58;;
43552;SDS011;29153;42.696;23.218;2022-07-09T00:53:42;7.00;;;5.33;;
43552;SDS011;29153;42.696;23.218;2022-07-09T00:56:13;6.37;;;4.87;;
43552;SDS011;29153;42.696;23.218;2022-07-09T00:58:41;7.15;;;5.03;;
43552;SDS011;29153;42.696;23.218;2022-07-09T01:01:10;6.75;;;5.40;;
43552;SDS011;29153;42.696;23.218;2022-07-09T01:03:39;7.20;;;5.22;;
43552;SDS011;29153;42.696;23.218;2022-07-09T01:06:07;5.58;;;5.03;;
43552;SDS011;29153;42.696;23.218;2022-07-09T01:08:34;7.33;;;5.85;;
43552;SDS011;29153;42.696;23.218;2022-07-09T01:11:02;6.15;;;5.53;;
43552;SDS011;29153;42.696;23.218;2022-07-09T01:13:30;9.30;;;6.05;;
43552;SDS011;29153;42.696;23.218;2022-07-09T01:15:58;7.33;;;5.87;;
43552;SDS011;29153;42.696;23.218;2022-07-09T01:18:25;7.50;;;6.10;;
43552;SDS011;29153;42.696;23.218;2022-07-09T01:20:53;6.40;;;5.70;;
43552;SDS011;29153;42.696;23.218;2022-07-09T01:23:21;5.97;;;5.20;;
43552;SDS011;29153;42.696;23.218;2022-07-09T01:25:48;7.62;;;5.42;;
43552;SDS011;29153;42.696;23.218;2022-07-09T01:28:16;8.33;;;5.50;;
43552;SDS011;29153;42.696;23.218;2022-07-09T01:30:43;10.43;;;5.75;;
43552;SDS011;29153;42.696;23.218;2022-07-09T01:33:11;6.33;;;5.72;;
43552;SDS011;29153;42.696;23.218;2022-07-09T01:35:39;10.40;;;5.60;;
43552;SDS011;29153;42.696;23.218;2022-07-09T01:38:07;6.20;;;5.08;;
43552;SDS011;29153;42.696;23.218;2022-07-09T01:40:34;5.83;;;5.22;;
43552;SDS011;29153;42.696;23.218;2022-07-09T01:43:02;7.55;;;6.15;;
43552;SDS011;29153;42.696;23.218;2022-07-09T01:45:30;6.20;;;5.60;;
43552;SDS011;29153;42.696;23.218;2022-07-09T01:47:57;7.03;;;5.37;;
43552;SDS011;29153;42.696;23.218;2022-07-09T01:50:25;6.35;;;4.80;;
43552;SDS011;29153;42.696;23.218;2022-07-09T01:52:53;10.40;;;5.30;;
43552;SDS011;29153;42.696;23.218;2022-07-09T01:55:20;6.22;;;5.22;;
43552;SDS011;29153;42.696;23.218;2022-07-09T01:57:48;7.70;;;4.60;;
43552;SDS011;29153;42.696;23.218;2022-07-09T02:00:16;6.28;;;5.20;;
43552;SDS011;29153;42.696;23.218;2022-07-09T02:02:44;5.17;;;4.70;;
43552;SDS011;29153;42.696;23.218;2022-07-09T02:05:12;6.67;;;4.55;;
43552;SDS011;29153;42.696;23.218;2022-07-09T02:07:40;5.83;;;4.85;;
43552;SDS011;29153;42.696;23.218;2022-07-09T02:10:07;7.30;;;4.55;;
43552;SDS011;29153;42.696;23.218;2022-07-09T02:12:35;5.30;;;4.72;;
43552;SDS011;29153;42.696;23.218;2022-07-09T02:15:03;4.92;;;4.40;;
43552;SDS011;29153;42.696;23.218;2022-07-09T02:17:32;5.75;;;4.92;;
43552;SDS011;29153;42.696;23.218;2022-07-09T02:20:00;6.45;;;4.70;;
43552;SDS011;29153;42.696;23.218;2022-07-09T02:22:28;6.78;;;4.83;;
43552;SDS011;29153;42.696;23.218;2022-07-09T02:24:56;6.78;;;5.37;;
43552;SDS011;29153;42.696;23.218;2022-07-09T02:27:24;7.60;;;4.55;;
43552;SDS011;29153;42.696;23.218;2022-07-09T02:29:51;11.03;;;5.58;;
43552;SDS011;29153;42.696;23.218;2022-07-09T02:32:19;5.45;;;4.78;;
43552;SDS011;29153;42.696;23.218;2022-07-09T02:34:47;9.88;;;5.45;;
43552;SDS011;29153;42.696;23.218;2022-07-09T02:37:14;8.48;;;5.15;;
43552;SDS011;29153;42.696;23.218;2022-07-09T02:39:42;10.70;;;5.55;;
43552;SDS011;29153;42.696;23.218;2022-07-09T02:42:10;7.90;;;5.72;;
43552;SDS011;29153;42.696;23.218;2022-07-09T02:44:37;5.35;;;4.85;;
43552;SDS011;29153;42.696;23.218;2022-07-09T02:47:06;6.08;;;5.17;;
43552;SDS011;29153;42.696;23.218;2022-07-09T02:49:34;5.35;;;4.85;;
43552;SDS011;29153;42.696;23.218;2022-07-09T02:52:02;5.35;;;4.85;;
43552;SDS011;29153;42.696;23.218;2022-07-09T02:54:29;5.70;;;4.78;;
43552;SDS011;29153;42.696;23.218;2022-07-09T02:56:57;5.50;;;4.92;;
43552;SDS011;29153;42.696;23.218;2022-07-09T02:59:25;8.13;;;4.45;;
43552;SDS011;29153;42.696;23.218;2022-07-09T03:01:52;6.05;;;4.85;;
43552;SDS011;29153;42.696;23.218;2022-07-09T03:04:20;5.33;;;4.83;;
43552;SDS011;29153;42.696;23.218;2022-07-09T03:06:48;10.13;;;4.90;;
43552;SDS011;29153;42.696;23.218;2022-07-09T03:09:15;8.33;;;4.83;;
43552;SDS011;29153;42.696;23.218;2022-07-09T03:11:43;7.40;;;5.47;;
43552;SDS011;29153;42.696;23.218;2022-07-09T03:14:10;6.40;;;4.85;;
43552;SDS011;29153;42.696;23.218;2022-07-09T03:16:38;5.80;;;5.28;;
43552;SDS011;29153;42.696;23.218;2022-07-09T03:19:06;7.05;;;5.30;;
43552;SDS011;29153;42.696;23.218;2022-07-09T03:21:33;5.47;;;4.97;;
43552;SDS011;29153;42.696;23.218;2022-07-09T03:24:01;12.78;;;5.37;;
43552;SDS011;29153;42.696;23.218;2022-07-09T03:26:29;7.45;;;5.70;;
43552;SDS011;29153;42.696;23.218;2022-07-09T03:28:56;5.22;;;4.80;;
43552;SDS011;29153;42.696;23.218;2022-07-09T03:31:24;6.83;;;5.35;;
43552;SDS011;29153;42.696;23.218;2022-07-09T03:33:51;8.03;;;5.17;;
43552;SDS011;29153;42.696;23.218;2022-07-09T03:36:19;5.80;;;5.30;;
43552;SDS011;29153;42.696;23.218;2022-07-09T03:38:47;5.75;;;5.25;;
43552;SDS011;29153;42.696;23.218;2022-07-09T03:41:14;9.53;;;5.70;;
43552;SDS011;29153;42.696;23.218;2022-07-09T03:43:42;8.55;;;5.67;;
43552;SDS011;29153;42.696;23.218;2022-07-09T03:46:10;7.00;;;5.35;;
43552;SDS011;29153;42.696;23.218;2022-07-09T03:48:37;7.90;;;5.05;;
43552;SDS011;29153;42.696;23.218;2022-07-09T03:51:06;8.00;;;4.92;;
43552;SDS011;29153;42.696;23.218;2022-07-09T03:53:33;7.33;;;4.92;;
43552;SDS011;29153;42.696;23.218;2022-07-09T03:56:01;6.78;;;5.12;;
43552;SDS011;29153;42.696;23.218;2022-07-09T03:58:29;6.67;;;5.47;;
43552;SDS011;29153;42.696;23.218;2022-07-09T04:00:56;7.90;;;6.10;;
43552;SDS011;29153;42.696;23.218;2022-07-09T04:03:24;11.25;;;5.15;;
43552;SDS011;29153;42.696;23.218;2022-07-09T04:05:51;5.33;;;4.72;;
43552;SDS011;29153;42.696;23.218;2022-07-09T04:08:19;5.47;;;4.97;;
43552;SDS011;29153;42.696;23.218;2022-07-09T04:10:47;6.37;;;5.60;;
43552;SDS011;29153;42.696;23.218;2022-07-09T04:13:14;6.25;;;5.35;;
43552;SDS011;29153;42.696;23.218;2022-07-09T04:15:42;5.65;;;5.15;;
43552;SDS011;29153;42.696;23.218;2022-07-09T04:18:12;7.40;;;4.78;;
43552;SDS011;29153;42.696;23.218;2022-07-09T04:20:43;5.83;;;5.10;;
43552;SDS011;29153;42.696;23.218;2022-07-09T04:23:11;8.40;;;5.20;;
43552;SDS011;29153;42.696;23.218;2022-07-09T04:25:38;11.43;;;5.25;;
43552;SDS011;29153;42.696;23.218;2022-07-09T04:28:06;6.12;;;5.20;;
43552;SDS011;29153;42.696;23.218;2022-07-09T04:30:34;7.10;;;5.37;;
43552;SDS011;29153;42.696;23.218;2022-07-09T04:33:01;5.33;;;4.72;;
43552;SDS011;29153;42.696;23.218;2022-07-09T04:35:29;5.53;;;4.92;;
43552;SDS011;29153;42.696;23.218;2022-07-09T04:37:56;6.37;;;5.45;;
43552;SDS011;29153;42.696;23.218;2022-07-09T04:40:24;5.53;;;5.03;;
43552;SDS011;29153;42.696;23.218;2022-07-09T04:42:52;7.70;;;4.87;;
43552;SDS011;29153;42.696;23.218;2022-07-09T04:45:19;6.78;;;4.50;;
43552;SDS011;29153;42.696;23.218;2022-07-09T04:47:47;5.10;;;4.42;;
43552;SDS011;29153;42.696;23.218;2022-07-09T04:50:15;5.45;;;4.53;;
43552;SDS011;29153;42.696;23.218;2022-07-09T04:52:42;6.17;;;4.17;;
43552;SDS011;29153;42.696;23.218;2022-07-09T04:55:10;4.70;;;4.30;;
43552;SDS011;29153;42.696;23.218;2022-07-09T04:57:38;4.72;;;4.20;;
43552;SDS011;29153;42.696;23.218;2022-07-09T05:00:06;6.47;;;4.72;;
43552;SDS011;29153;42.696;23.218;2022-07-09T05:02:34;6.10;;;4.33;;
43552;SDS011;29153;42.696;23.218;2022-07-09T05:05:01;4.17;;;3.77;;
43552;SDS011;29153;42.696;23.218;2022-07-09T05:07:34;6.03;;;4.00;;
43552;SDS011;29153;42.696;23.218;2022-07-09T05:09:59;6.12;;;4.10;;
43552;SDS011;29153;42.696;23.218;2022-07-09T05:12:27;9.18;;;3.90;;
43552;SDS011;29153;42.696;23.218;2022-07-09T05:14:58;4.70;;;4.17;;
43552;SDS011;29153;42.696;23.218;2022-07-09T05:17:25;5.75;;;3.92;;
43552;SDS011;29153;42.696;23.218;2022-07-09T05:19:53;8.50;;;4.00;;
43552;SDS011;29153;42.696;23.218;2022-07-09T05:22:20;5.30;;;3.98;;
43552;SDS011;29153;42.696;23.218;2022-07-09T05:24:48;5.37;;;3.65;;
43552;SDS011;29153;42.696;23.218;2022-07-09T05:27:16;5.45;;;3.98;;
43552;SDS011;29153;42.696;23.218;2022-07-09T05:29:43;7.12;;;3.80;;
43552;SDS011;29153;42.696;23.218;2022-07-09T05:32:11;4.10;;;3.70;;
43552;SDS011;29153;42.696;23.218;2022-07-09T05:34:39;3.67;;;3.37;;
43552;SDS011;29153;42.696;23.218;2022-07-09T05:37:08;4.33;;;3.83;;
43552;SDS011;29153;42.696;23.218;2022-07-09T05:39:36;4.10;;;3.72;;
43552;SDS011;29153;42.696;23.218;2022-07-09T05:42:03;5.83;;;4.08;;
43552;SDS011;29153;42.696;23.218;2022-07-09T05:44:31;3.47;;;3.08;;
43552;SDS011;29153;42.696;23.218;2022-07-09T05:46:59;3.58;;;3.30;;
43552;SDS011;29153;42.696;23.218;2022-07-09T05:49:28;4.15;;;3.77;;
43552;SDS011;29153;42.696;23.218;2022-07-09T05:51:57;4.28;;;3.70;;
43552;SDS011;29153;42.696;23.218;2022-07-09T05:54:25;3.45;;;3.02;;
43552;SDS011;29153;42.696;23.218;2022-07-09T05:56:52;3.27;;;2.98;;
43552;SDS011;29153;42.696;23.218;2022-07-09T05:59:20;3.50;;;3.20;;
43552;SDS011;29153;42.696;23.218;2022-07-09T06:01:48;3.35;;;3.05;;
43552;SDS011;29153;42.696;23.218;2022-07-09T06:04:15;3.35;;;3.05;;
43552;SDS011;29153;42.696;23.218;2022-07-09T06:06:43;4.10;;;3.70;;
43552;SDS011;29153;42.696;23.218;2022-07-09T06:09:10;3.47;;;3.10;;
43552;SDS011;29153;42.696;23.218;2022-07-09T06:11:43;9.03;;;3.37;;
43552;SDS011;29153;42.696;23.218;2022-07-09T06:14:07;4.00;;;3.60;;
43552;SDS011;29153;42.696;23.218;2022-07-09T06:16:35;7.60;;;3.80;;
43552;SDS011;29153;42.696;23.218;2022-07-09T06:19:04;3.85;;;3.55;;
43552;SDS011;29153;42.696;23.218;2022-07-09T06:21:31;3.33;;;3.02;;
43552;SDS011;29153;42.696;23.218;2022-07-09T06:23:59;3.60;;;2.95;;
43552;SDS011;29153;42.696;23.218;2022-07-09T06:26:27;8.28;;;3.17;;
43552;SDS011;29153;42.696;23.218;2022-07-09T06:28:56;4.90;;;3.25;;
43552;SDS011;29153;42.696;23.218;2022-07-09T06:31:25;3.95;;;3.25;;
43552;SDS011;29153;42.696;23.218;2022-07-09T06:33:53;6.85;;;3.65;;
43552;SDS011;29153;42.696;23.218;2022-07-09T06:36:22;5.03;;;3.92;;
43552;SDS011;29153;42.696;23.218;2022-07-09T06:38:49;4.03;;;3.72;;
43552;SDS011;29153;42.696;23.218;2022-07-09T06:41:35;4.08;;;3.70;;
43552;SDS011;29153;42.696;23.218;2022-07-09T06:44:02;4.08;;;3.60;;
43552;SDS011;29153;42.696;23.218;2022-07-09T06:46:31;3.95;;;3.65;;
43552;SDS011;29153;42.696;23.218;2022-07-09T06:49:00;4.53;;;4.12;;
43552;SDS011;29153;42.696;23.218;2022-07-09T06:51:28;5.05;;;4.05;;
43552;SDS011;29153;42.696;23.218;2022-07-09T06:53:56;5.45;;;4.17;;
43552;SDS011;29153;42.696;23.218;2022-07-09T06:56:23;4.55;;;4.10;;
43552;SDS011;29153;42.696;23.218;2022-07-09T06:58:52;4.95;;;4.37;;
43552;SDS011;29153;42.696;23.218;2022-07-09T07:01:21;4.47;;;4.08;;
43552;SDS011;29153;42.696;23.218;2022-07-09T07:03:50;4.78;;;4.28;;
43552;SDS011;29153;42.696;23.218;2022-07-09T07:06:18;4.50;;;4.15;;
43552;SDS011;29153;42.696;23.218;2022-07-09T07:08:45;5.03;;;3.87;;
43552;SDS011;29153;42.696;23.218;2022-07-09T07:11:18;5.42;;;4.95;;
43552;SDS011;29153;42.696;23.218;2022-07-09T07:13:42;4.85;;;4.45;;
43552;SDS011;29153;42.696;23.218;2022-07-09T07:16:10;4.90;;;4.50;;
43552;SDS011;29153;42.696;23.218;2022-07-09T07:18:37;6.00;;;5.12;;
43552;SDS011;29153;42.696;23.218;2022-07-09T07:21:05;7.97;;;5.78;;
43552;SDS011;29153;42.696;23.218;2022-07-09T07:23:37;11.15;;;6.47;;
43552;SDS011;29153;42.696;23.218;2022-07-09T07:26:01;8.78;;;5.60;;
43552;SDS011;29153;42.696;23.218;2022-07-09T07:28:29;7.58;;;4.72;;
43552;SDS011;29153;42.696;23.218;2022-07-09T07:30:57;6.37;;;5.78;;
43552;SDS011;29153;42.696;23.218;2022-07-09T07:33:28;5.67;;;5.17;;
43552;SDS011;29153;42.696;23.218;2022-07-09T07:36:00;5.17;;;4.67;;
43552;SDS011;29153;42.696;23.218;2022-07-09T07:38:25;5.85;;;5.15;;
43552;SDS011;29153;42.696;23.218;2022-07-09T07:40:53;4.80;;;4.40;;
43552;SDS011;29153;42.696;23.218;2022-07-09T07:43:21;4.92;;;4.53;;
43552;SDS011;29153;42.696;23.218;2022-07-09T07:45:50;6.55;;;4.42;;
43552;SDS011;29153;42.696;23.218;2022-07-09T07:48:19;4.67;;;4.15;;
43552;SDS011;29153;42.696;23.218;2022-07-09T07:50:46;4.12;;;3.83;;
43552;SDS011;29153;42.696;23.218;2022-07-09T07:53:14;5.72;;;3.92;;
43552;SDS011;29153;42.696;23.218;2022-07-09T07:55:42;6.60;;;3.58;;
43552;SDS011;29153;42.696;23.218;2022-07-09T07:58:09;6.05;;;3.87;;
43552;SDS011;29153;42.696;23.218;2022-07-09T08:00:37;3.72;;;3.42;;
43552;SDS011;29153;42.696;23.218;2022-07-09T08:03:05;3.83;;;3.52;;
43552;SDS011;29153;42.696;23.218;2022-07-09T08:05:32;6.47;;;4.30;;
43552;SDS011;29153;42.696;23.218;2022-07-09T08:08:00;4.67;;;3.90;;
43552;SDS011;29153;42.696;23.218;2022-07-09T08:10:27;4.78;;;4.37;;
43552;SDS011;29153;42.696;23.218;2022-07-09T08:12:55;4.55;;;4.15;;
43552;SDS011;29153;42.696;23.218;2022-07-09T08:15:23;5.20;;;3.92;;
43552;SDS011;29153;42.696;23.218;2022-07-09T08:17:50;4.00;;;3.70;;
43552;SDS011;29153;42.696;23.218;2022-07-09T08:20:19;4.80;;;4.40;;
43552;SDS011;29153;42.696;23.218;2022-07-09T08:22:47;4.87;;;4.47;;
43552;SDS011;29153;42.696;23.218;2022-07-09T08:25:14;4.37;;;4.08;;
43552;SDS011;29153;42.696;23.218;2022-07-09T08:27:42;4.83;;;4.35;;
43552;SDS011;29153;42.696;23.218;2022-07-09T08:30:11;4.78;;;4.37;;
43552;SDS011;29153;42.696;23.218;2022-07-09T08:32:39;4.47;;;4.08;;
43552;SDS011;29153;42.696;23.218;2022-07-09T08:35:07;6.62;;;4.20;;
43552;SDS011;29153;42.696;23.218;2022-07-09T08:37:35;4.25;;;3.85;;
43552;SDS011;29153;42.696;23.218;2022-07-09T08:40:03;5.75;;;3.85;;
43552;SDS011;29153;42.696;23.218;2022-07-09T08:42:31;5.05;;;4.00;;
43552;SDS011;29153;42.696;23.218;2022-07-09T08:44:58;4.28;;;3.92;;
43552;SDS011;29153;42.696;23.218;2022-07-09T08:47:26;4.37;;;3.98;;
43552;SDS011;29153;42.696;23.218;2022-07-09T08:49:56;4.30;;;3.90;;
43552;SDS011;29153;42.696;23.218;2022-07-09T08:52:26;4.30;;;3.98;;
43552;SDS011;29153;42.696;23.218;2022-07-09T08:54:55;5.42;;;3.33;;
43552;SDS011;29153;42.696;23.218;2022-07-09T08:57:22;3.33;;;3.00;;
43552;SDS011;29153;42.696;23.218;2022-07-09T08:59:50;3.55;;;3.05;;
43552;SDS011;29153;42.696;23.218;2022-07-09T09:02:17;3.45;;;3.20;;
43552;SDS011;29153;42.696;23.218;2022-07-09T09:04:45;3.45;;;3.15;;
43552;SDS011;29153;42.696;23.218;2022-07-09T09:09:43;3.47;;;3.17;;
43552;SDS011;29153;42.696;23.218;2022-07-09T09:12:12;7.15;;;3.58;;
43552;SDS011;29153;42.696;23.218;2022-07-09T09:14:47;4.45;;;4.05;;
43552;SDS011;29153;42.696;23.218;2022-07-09T09:17:17;6.15;;;3.47;;
43552;SDS011;29153;42.696;23.218;2022-07-09T09:19:44;7.90;;;3.67;;
43552;SDS011;29153;42.696;23.218;2022-07-09T09:22:15;3.90;;;3.60;;
43552;SDS011;29153;42.696;23.218;2022-07-09T09:24:46;5.75;;;3.60;;
43552;SDS011;29153;42.696;23.218;2022-07-09T09:27:17;6.85;;;4.00;;
43552;SDS011;29153;42.696;23.218;2022-07-09T09:29:51;5.85;;;4.40;;
43552;SDS011;29153;42.696;23.218;2022-07-09T09:32:19;4.78;;;4.28;;
43552;SDS011;29153;42.696;23.218;2022-07-09T09:34:50;8.47;;;4.60;;
43552;SDS011;29153;42.696;23.218;2022-07-09T09:37:24;6.08;;;4.25;;
43552;SDS011;29153;42.696;23.218;2022-07-09T09:39:55;4.12;;;3.65;;
43552;SDS011;29153;42.696;23.218;2022-07-09T09:42:23;5.67;;;3.80;;
43552;SDS011;29153;42.696;23.218;2022-07-09T09:44:51;4.70;;;4.30;;
43552;SDS011;29153;42.696;23.218;2022-07-09T09:47:20;4.30;;;3.90;;
43552;SDS011;29153;42.696;23.218;2022-07-09T09:49:49;6.90;;;4.05;;
43552;SDS011;29153;42.696;23.218;2022-07-09T09:52:16;5.00;;;4.42;;
43552;SDS011;29153;42.696;23.218;2022-07-09T09:54:46;9.68;;;5.58;;
43552;SDS011;29153;42.696;23.218;2022-07-09T09:57:20;5.67;;;4.80;;
43552;SDS011;29153;42.696;23.218;2022-07-09T09:59:52;9.43;;;5.92;;
43552;SDS011;29153;42.696;23.218;2022-07-09T10:04:59;5.22;;;4.53;;
43552;SDS011;29153;42.696;23.218;2022-07-09T10:07:29;6.62;;;5.17;;
43552;SDS011;29153;42.696;23.218;2022-07-09T10:09:59;7.80;;;4.90;;
43552;SDS011;29153;42.696;23.218;2022-07-09T10:12:29;5.60;;;5.10;;
43552;SDS011;29153;42.696;23.218;2022-07-09T10:14:59;7.30;;;6.00;;
43552;SDS011;29153;42.696;23.218;2022-07-09T10:20:07;3.85;;;3.55;;
43552;SDS011;29153;42.696;23.218;2022-07-09T10:22:37;8.00;;;4.97;;
43552;SDS011;29153;42.696;23.218;2022-07-09T10:25:06;5.92;;;4.65;;
43552;SDS011;29153;42.696;23.218;2022-07-09T10:27:42;3.90;;;3.12;;
43552;SDS011;29153;42.696;23.218;2022-07-09T10:30:31;3.90;;;3.05;;
43552;SDS011;29153;42.696;23.218;2022-07-09T10:33:01;4.33;;;3.33;;
43552;SDS011;29153;42.696;23.218;2022-07-09T10:35:30;3.22;;;2.92;;
43552;SDS011;29153;42.696;23.218;2022-07-09T10:37:59;4.40;;;3.42;;
43552;SDS011;29153;42.696;23.218;2022-07-09T10:40:36;2.67;;;2.40;;
43552;SDS011;29153;42.696;23.218;2022-07-09T10:42:58;3.52;;;3.22;;
43552;SDS011;29153;42.696;23.218;2022-07-09T10:45:28;4.67;;;3.60;;
43552;SDS011;29153;42.696;23.218;2022-07-09T10:47:58;2.87;;;2.67;;
43552;SDS011;29153;42.696;23.218;2022-07-09T10:50:28;4.42;;;2.47;;
43552;SDS011;29153;42.696;23.218;2022-07-09T10:52:57;4.12;;;3.67;;
43552;SDS011;29153;42.696;23.218;2022-07-09T10:55:26;2.85;;;2.65;;
43552;SDS011;29153;42.696;23.218;2022-07-09T11:00:39;3.10;;;2.10;;
43552;SDS011;29153;42.696;23.218;2022-07-09T11:03:07;4.55;;;2.67;;
43552;SDS011;29153;42.696;23.218;2022-07-09T11:05:43;3.05;;;2.60;;
43552;SDS011;29153;42.696;23.218;2022-07-09T11:08:11;2.77;;;2.58;;
43552;SDS011;29153;42.696;23.218;2022-07-09T11:10:40;2.90;;;2.60;;
43552;SDS011;29153;42.696;23.218;2022-07-09T11:13:08;3.75;;;2.20;;
43552;SDS011;29153;42.696;23.218;2022-07-09T11:15:36;4.25;;;2.40;;
43552;SDS011;29153;42.696;23.218;2022-07-09T11:18:05;2.70;;;2.50;;
43552;SDS011;29153;42.696;23.218;2022-07-09T11:20:42;2.50;;;2.27;;
43552;SDS011;29153;42.696;23.218;2022-07-09T11:23:09;2.92;;;2.20;;
43552;SDS011;29153;42.696;23.218;2022-07-09T11:25:38;2.65;;;1.92;;
43552;SDS011;29153;42.696;23.218;2022-07-09T11:28:06;2.85;;;2.65;;
43552;SDS011;29153;42.696;23.218;2022-07-09T11:30:35;2.30;;;2.00;;
43552;SDS011;29153;42.696;23.218;2022-07-09T11:33:03;2.42;;;2.22;;
43552;SDS011;29153;42.696;23.218;2022-07-09T11:35:31;2.70;;;2.50;;
43552;SDS011;29153;42.696;23.218;2022-07-09T11:38:01;2.85;;;2.33;;
43552;SDS011;29153;42.696;23.218;2022-07-09T11:40:32;5.47;;;2.15;;
43552;SDS011;29153;42.696;23.218;2022-07-09T11:43:00;2.60;;;2.35;;
43552;SDS011;29153;42.696;23.218;2022-07-09T11:45:29;3.70;;;2.80;;
43552;SDS011;29153;42.696;23.218;2022-07-09T11:48:03;2.40;;;2.20;;
43552;SDS011;29153;42.696;23.218;2022-07-09T11:50:42;2.45;;;2.20;;
43552;SDS011;29153;42.696;23.218;2022-07-09T11:53:20;2.83;;;2.62;;
43552;SDS011;29153;42.696;23.218;2022-07-09T11:55:57;2.72;;;1.90;;
43552;SDS011;29153;42.696;23.218;2022-07-09T11:58:26;2.10;;;2.00;;
43552;SDS011;29153;42.696;23.218;2022-07-09T12:00:54;2.47;;;2.10;;
43552;SDS011;29153;42.696;23.218;2022-07-09T12:03:24;3.58;;;1.65;;
43552;SDS011;29153;42.696;23.218;2022-07-09T12:05:53;2.00;;;1.90;;
43552;SDS011;29153;42.696;23.218;2022-07-09T12:08:29;3.17;;;1.90;;
43552;SDS011;29153;42.696;23.218;2022-07-09T12:11:02;2.50;;;1.80;;
43552;SDS011;29153;42.696;23.218;2022-07-09T12:13:26;3.60;;;2.05;;
43552;SDS011;29153;42.696;23.218;2022-07-09T12:15:55;2.45;;;2.25;;
43552;SDS011;29153;42.696;23.218;2022-07-09T12:18:22;2.05;;;1.85;;
43552;SDS011;29153;42.696;23.218;2022-07-09T12:20:50;1.95;;;1.72;;
43552;SDS011;29153;42.696;23.218;2022-07-09T12:30:15;1.70;;;1.60;;
43552;SDS011;29153;42.696;23.218;2022-07-09T12:32:43;1.65;;;1.55;;
43552;SDS011;29153;42.696;23.218;2022-07-09T12:35:11;4.53;;;1.90;;
43552;SDS011;29153;42.696;23.218;2022-07-09T12:37:39;1.62;;;1.52;;
43552;SDS011;29153;42.696;23.218;2022-07-09T12:40:08;3.12;;;1.70;;
43552;SDS011;29153;42.696;23.218;2022-07-09T12:42:37;2.12;;;2.02;;
43552;SDS011;29153;42.696;23.218;2022-07-09T12:45:05;3.08;;;2.00;;
43552;SDS011;29153;42.696;23.218;2022-07-09T12:47:33;1.80;;;1.70;;
43552;SDS011;29153;42.696;23.218;2022-07-09T12:50:01;1.98;;;1.70;;
43552;SDS011;29153;42.696;23.218;2022-07-09T12:52:34;2.37;;;1.72;;
43552;SDS011;29153;42.696;23.218;2022-07-09T12:55:02;3.40;;;1.70;;
43552;SDS011;29153;42.696;23.218;2022-07-09T12:57:31;1.98;;;1.87;;
43552;SDS011;29153;42.696;23.218;2022-07-09T12:59:59;2.00;;;1.90;;
43552;SDS011;29153;42.696;23.218;2022-07-09T13:02:27;2.17;;;1.98;;
43552;SDS011;29153;42.696;23.218;2022-07-09T13:04:55;2.25;;;2.05;;
43552;SDS011;29153;42.696;23.218;2022-07-09T13:07:23;2.10;;;1.90;;
43552;SDS011;29153;42.696;23.218;2022-07-09T13:09:50;2.75;;;1.60;;
43552;SDS011;29153;42.696;23.218;2022-07-09T13:12:18;2.62;;;1.77;;
43552;SDS011;29153;42.696;23.218;2022-07-09T13:14:49;2.27;;;1.80;;
43552;SDS011;29153;42.696;23.218;2022-07-09T13:17:16;1.62;;;1.52;;
43552;SDS011;29153;42.696;23.218;2022-07-09T13:19:44;2.10;;;1.60;;
43552;SDS011;29153;42.696;23.218;2022-07-09T13:22:13;4.05;;;1.55;;
43552;SDS011;29153;42.696;23.218;2022-07-09T13:24:42;1.70;;;1.60;;
43552;SDS011;29153;42.696;23.218;2022-07-09T13:27:10;1.67;;;1.57;;
43552;SDS011;29153;42.696;23.218;2022-07-09T13:29:38;8.43;;;2.22;;
43552;SDS011;29153;42.696;23.218;2022-07-09T13:32:06;2.30;;;2.10;;
43552;SDS011;29153;42.696;23.218;2022-07-09T13:34:34;2.40;;;2.00;;
43552;SDS011;29153;42.696;23.218;2022-07-09T13:37:02;3.40;;;1.70;;
43552;SDS011;29153;42.696;23.218;2022-07-09T13:39:29;2.08;;;1.87;;
43552;SDS011;29153;42.696;23.218;2022-07-09T13:41:57;2.47;;;2.27;;
43552;SDS011;29153;42.696;23.218;2022-07-09T13:44:25;2.95;;;2.27;;
43552;SDS011;29153;42.696;23.218;2022-07-09T13:46:52;2.37;;;1.92;;
43552;SDS011;29153;42.696;23.218;2022-07-09T13:49:20;2.02;;;1.92;;
43552;SDS011;29153;42.696;23.218;2022-07-09T13:51:47;4.35;;;2.08;;
43552;SDS011;29153;42.696;23.218;2022-07-09T13:54:15;2.15;;;1.95;;
43552;SDS011;29153;42.696;23.218;2022-07-09T13:56:43;2.12;;;1.92;;
43552;SDS011;29153;42.696;23.218;2022-07-09T13:59:11;2.40;;;2.20;;
43552;SDS011;29153;42.696;23.218;2022-07-09T14:01:38;3.83;;;2.20;;
43552;SDS011;29153;42.696;23.218;2022-07-09T14:04:06;3.02;;;2.05;;
43552;SDS011;29153;42.696;23.218;2022-07-09T14:06:34;1.90;;;1.80;;
43552;SDS011;29153;42.696;23.218;2022-07-09T14:09:02;2.42;;;2.25;;
43552;SDS011;29153;42.696;23.218;2022-07-09T14:11:32;2.22;;;2.02;;
43552;SDS011;29153;42.696;23.218;2022-07-09T14:13:59;4.20;;;2.20;;
43552;SDS011;29153;42.696;23.218;2022-07-09T14:16:30;6.50;;;2.22;;
43552;SDS011;29153;42.696;23.218;2022-07-09T14:18:59;2.30;;;2.00;;
43552;SDS011;29153;42.696;23.218;2022-07-09T14:21:26;4.10;;;1.80;;
43552;SDS011;29153;42.696;23.218;2022-07-09T14:23:54;1.98;;;1.87;;
43552;SDS011;29153;42.696;23.218;2022-07-09T14:26:22;4.45;;;2.00;;
43552;SDS011;29153;42.696;23.218;2022-07-09T14:28:50;4.62;;;1.90;;
43552;SDS011;29153;42.696;23.218;2022-07-09T14:31:17;6.72;;;2.30;;
43552;SDS011;29153;42.696;23.218;2022-07-09T14:33:45;2.80;;;2.02;;
43552;SDS011;29153;42.696;23.218;2022-07-09T14:36:13;3.35;;;2.37;;
43552;SDS011;29153;42.696;23.218;2022-07-09T14:38:41;2.60;;;2.40;;
43552;SDS011;29153;42.696;23.218;2022-07-09T14:41:08;4.50;;;2.17;;
43552;SDS011;29153;42.696;23.218;2022-07-09T14:43:37;2.50;;;2.30;;
43552;SDS011;29153;42.696;23.218;2022-07-09T14:46:09;2.62;;;2.20;;
43552;SDS011;29153;42.696;23.218;2022-07-09T14:48:36;2.40;;;2.00;;
43552;SDS011;29153;42.696;23.218;2022-07-09T14:51:06;5.62;;;3.00;;
43552;SDS011;29153;42.696;23.218;2022-07-09T14:53:34;3.85;;;2.52;;
43552;SDS011;29153;42.696;23.218;2022-07-09T14:56:01;3.33;;;2.60;;
43552;SDS011;29153;42.696;23.218;2022-07-09T14:58:29;3.95;;;2.35;;